createdAt,value
2019-05-23T00:00:07.863Z,13.60
2019-05-23T00:02:42.381Z,13.61
2019-05-23T00:05:14.917Z,13.67
2019-05-23T00:07:45.519Z,13.62
2019-05-23T00:10:17.029Z,13.50
2019-05-23T00:12:50.057Z,13.46
2019-05-23T00:15:27.906Z,13.45
2019-05-23T00:17:59.391Z,13.43
2019-05-23T00:20:31.307Z,13.49
2019-05-23T00:23:01.598Z,13.63
2019-05-23T00:25:34.102Z,13.73
2019-05-23T00:28:07.096Z,13.82
2019-05-23T00:30:44.963Z,13.94
2019-05-23T00:33:23.745Z,14.07
2019-05-23T00:35:53.894Z,14.22
2019-05-23T00:38:23.821Z,14.30
2019-05-23T00:40:55.148Z,14.27
2019-05-23T00:43:27.445Z,14.12
2019-05-23T00:45:58.258Z,13.93
2019-05-23T00:48:28.553Z,13.88
2019-05-23T00:50:58.724Z,13.87
2019-05-23T00:53:28.891Z,13.87
2019-05-23T00:55:59.309Z,13.76
2019-05-23T00:58:30.638Z,13.66
2019-05-23T01:01:03.073Z,13.65
2019-05-23T01:03:33.660Z,13.73
2019-05-23T01:06:04.151Z,13.88
2019-05-23T01:08:35.527Z,13.98
2019-05-23T01:11:07.358Z,14.07
2019-05-23T01:13:37.619Z,14.17
2019-05-23T01:16:07.933Z,14.21
2019-05-23T01:18:37.909Z,14.25
2019-05-23T01:21:19.539Z,14.33
2019-05-23T01:24:06.384Z,14.38
2019-05-23T01:26:36.541Z,14.52
2019-05-23T01:29:09.085Z,14.53
2019-05-23T01:31:40.743Z,14.52
2019-05-23T01:34:11.765Z,14.54
2019-05-23T01:36:42.233Z,14.51
2019-05-23T01:39:12.323Z,14.43
2019-05-23T01:41:42.527Z,14.31
2019-05-23T01:44:13.265Z,14.27
2019-05-23T01:46:43.549Z,14.26
2019-05-23T01:49:13.780Z,14.26
2019-05-23T01:51:43.668Z,14.25
2019-05-23T01:54:14.569Z,14.27
2019-05-23T01:56:44.582Z,14.18
2019-05-23T01:59:14.746Z,14.01
2019-05-23T02:01:45.302Z,13.91
2019-05-23T02:04:15.503Z,13.80
2019-05-23T02:06:45.297Z,13.81
2019-05-23T02:09:15.376Z,13.80
2019-05-23T02:11:45.654Z,13.80
2019-05-23T02:14:15.389Z,13.77
2019-05-23T02:16:45.712Z,13.86
2019-05-23T02:19:15.336Z,13.89
2019-05-23T02:21:46.059Z,13.90
2019-05-23T02:24:17.236Z,13.92
2019-05-23T02:26:47.369Z,13.90
2019-05-23T02:29:17.458Z,13.91
2019-05-23T02:31:47.432Z,13.92
2019-05-23T02:34:17.693Z,13.93
2019-05-23T02:36:48.397Z,13.96
2019-05-23T02:39:28.598Z,13.95
2019-05-23T02:42:00.638Z,13.90
2019-05-23T02:44:32.642Z,13.77
2019-05-23T02:47:11.627Z,13.71
2019-05-23T02:49:43.179Z,13.69
2019-05-23T02:52:39.260Z,13.69
2019-05-23T02:55:37.451Z,13.75
2019-05-23T02:58:33.529Z,13.86
2019-05-23T03:01:30.614Z,13.87
2019-05-23T03:04:10.584Z,13.96
2019-05-23T03:06:41.724Z,13.88
2019-05-23T03:09:12.749Z,13.78
2019-05-23T03:11:44.485Z,13.68
2019-05-23T03:14:16.732Z,13.71
2019-05-23T03:16:52.291Z,13.71
2019-05-23T03:19:29.250Z,13.63
2019-05-23T03:22:03.449Z,13.54
2019-05-23T03:24:33.616Z,13.56
2019-05-23T03:27:06.059Z,13.51
2019-05-23T03:29:36.087Z,13.42
2019-05-23T03:32:11.396Z,13.36
2019-05-23T03:34:42.833Z,13.38
2019-05-23T03:37:14.609Z,13.45
2019-05-23T03:39:44.422Z,13.54
2019-05-23T03:42:15.228Z,13.62
2019-05-23T03:44:47.020Z,13.66
2019-05-23T03:47:20.777Z,13.70
2019-05-23T03:49:50.794Z,13.72
2019-05-23T03:52:21.864Z,13.77
2019-05-23T03:54:54.443Z,13.76
2019-05-23T03:57:26.071Z,13.74
2019-05-23T03:59:56.873Z,13.74
2019-05-23T04:02:26.826Z,13.74
2019-05-23T04:04:57.364Z,13.75
2019-05-23T04:07:28.236Z,13.76
2019-05-23T04:09:58.358Z,13.72
2019-05-23T04:12:27.938Z,13.80
2019-05-23T04:14:57.964Z,13.86
2019-05-23T04:17:27.761Z,13.93
2019-05-23T04:19:57.419Z,13.95
2019-05-23T04:22:27.582Z,13.93
2019-05-23T04:25:01.685Z,13.86
2019-05-23T04:27:28.633Z,13.84
2019-05-23T04:29:58.254Z,13.87
2019-05-23T04:32:28.429Z,13.96
2019-05-23T04:34:58.586Z,14.00
2019-05-23T04:37:29.048Z,14.09
2019-05-23T04:39:59.507Z,14.32
2019-05-23T04:42:29.495Z,14.52
2019-05-23T04:44:59.306Z,14.79
2019-05-23T04:47:29.249Z,15.04
2019-05-23T04:49:59.155Z,15.18
2019-05-23T04:52:29.188Z,15.20
2019-05-23T04:54:59.716Z,15.29
2019-05-23T04:57:29.634Z,15.31
2019-05-23T04:59:59.612Z,15.39
2019-05-23T05:02:30.945Z,15.47
2019-05-23T05:05:01.018Z,15.66
2019-05-23T05:07:30.982Z,15.75
2019-05-23T05:10:01.241Z,15.92
2019-05-23T05:12:31.611Z,16.07
2019-05-23T05:15:01.426Z,16.20
2019-05-23T05:17:31.698Z,16.32
2019-05-23T05:20:01.329Z,16.44
2019-05-23T05:22:31.017Z,16.65
2019-05-23T05:25:01.118Z,16.77
2019-05-23T05:27:30.897Z,16.72
2019-05-23T05:30:05.331Z,16.70
2019-05-23T05:32:44.889Z,16.71
2019-05-23T05:35:08.169Z,16.82
2019-05-23T05:37:37.977Z,16.85
2019-05-23T05:40:08.414Z,16.79
2019-05-23T05:42:39.243Z,16.98
2019-05-23T05:45:10.661Z,17.04
2019-05-23T05:47:40.633Z,16.94
2019-05-23T05:50:13.055Z,16.98
2019-05-23T05:52:44.727Z,17.18
2019-05-23T05:55:14.972Z,17.60
2019-05-23T05:57:44.569Z,17.91
2019-05-23T06:00:26.187Z,18.13
2019-05-23T06:03:04.569Z,18.37
2019-05-23T06:05:47.263Z,18.78
2019-05-23T06:08:18.790Z,19.15
2019-05-23T06:10:48.853Z,19.31
2019-05-23T06:13:18.916Z,19.27
2019-05-23T06:15:49.709Z,19.07
2019-05-23T06:18:19.912Z,18.85
2019-05-23T06:20:49.966Z,18.68
2019-05-23T06:23:21.183Z,18.71
2019-05-23T06:25:53.520Z,19.05
2019-05-23T06:28:23.384Z,19.50
2019-05-23T06:30:53.604Z,19.82
2019-05-23T06:33:24.565Z,19.85
2019-05-23T06:35:55.156Z,19.95
2019-05-23T06:38:26.034Z,20.32
2019-05-23T06:40:57.118Z,20.44
2019-05-23T06:43:27.442Z,20.41
2019-05-23T06:45:58.519Z,20.23
2019-05-23T06:48:31.245Z,20.37
2019-05-23T06:51:00.878Z,20.53
2019-05-23T06:53:30.506Z,20.70
2019-05-23T06:56:00.156Z,21.06
2019-05-23T06:58:30.764Z,21.26
2019-05-23T07:01:00.618Z,21.53
2019-05-23T07:03:41.757Z,21.65
2019-05-23T07:06:02.756Z,21.81
2019-05-23T07:08:33.171Z,22.09
2019-05-23T07:11:02.871Z,22.59
2019-05-23T07:13:34.241Z,22.86
2019-05-23T07:16:05.924Z,22.92
2019-05-23T07:18:35.785Z,23.03
2019-05-23T07:21:06.142Z,23.08
2019-05-23T07:23:35.961Z,23.04
2019-05-23T07:26:06.037Z,22.96
2019-05-23T07:28:36.343Z,22.79
2019-05-23T07:31:06.435Z,22.58
2019-05-23T07:33:36.108Z,22.33
2019-05-23T07:36:05.953Z,22.24
2019-05-23T07:38:36.105Z,22.11
2019-05-23T07:41:05.740Z,22.46
2019-05-23T07:43:35.753Z,22.76
2019-05-23T07:46:05.651Z,23.09
2019-05-23T07:48:36.080Z,23.22
2019-05-23T07:51:06.418Z,23.31
2019-05-23T07:53:43.735Z,23.47
2019-05-23T07:56:13.649Z,23.45
2019-05-23T07:58:43.326Z,23.49
2019-05-23T08:01:15.031Z,23.49
2019-05-23T08:03:47.525Z,23.38
2019-05-23T08:06:17.583Z,23.60
2019-05-23T08:08:48.220Z,24.00
2019-05-23T08:11:18.242Z,24.07
2019-05-23T08:13:49.996Z,24.04
2019-05-23T08:16:20.567Z,24.02
2019-05-23T08:18:50.791Z,24.21
2019-05-23T08:21:20.612Z,24.73
2019-05-23T08:23:50.227Z,24.91
2019-05-23T08:26:21.705Z,24.73
2019-05-23T08:29:12.766Z,25.23
2019-05-23T08:31:23.562Z,25.57
2019-05-23T08:33:53.770Z,26.09
2019-05-23T08:36:24.153Z,26.38
2019-05-23T08:38:55.376Z,26.71
2019-05-23T08:41:25.450Z,27.44
2019-05-23T08:43:55.367Z,27.65
2019-05-23T08:46:24.967Z,27.72
2019-05-23T08:48:54.887Z,28.16
2019-05-23T08:51:24.765Z,28.65
2019-05-23T08:53:54.956Z,28.63
2019-05-23T08:56:25.756Z,27.76
2019-05-23T08:58:55.468Z,26.70
2019-05-23T09:01:26.503Z,26.38
2019-05-23T09:04:00.286Z,26.05
2019-05-23T09:06:34.503Z,27.00
2019-05-23T09:09:27.699Z,27.55
2019-05-23T09:11:40.389Z,28.67
2019-05-23T09:14:10.249Z,30.37
2019-05-23T09:16:40.569Z,31.38
2019-05-23T09:19:10.628Z,31.63
2019-05-23T09:21:40.987Z,30.65
2019-05-23T09:24:11.597Z,30.77
2019-05-23T09:26:41.628Z,30.61
2019-05-23T09:29:11.330Z,32.10
2019-05-23T09:31:41.695Z,32.94
2019-05-23T09:34:11.402Z,33.69
2019-05-23T09:36:41.146Z,34.58
2019-05-23T09:39:13.775Z,35.71
2019-05-23T09:41:43.668Z,36.60
2019-05-23T09:44:13.490Z,36.86
2019-05-23T09:46:43.081Z,37.09
2019-05-23T09:49:13.099Z,37.04
2019-05-23T09:51:42.812Z,37.57
2019-05-23T09:54:12.682Z,38.44
2019-05-23T09:56:43.205Z,38.01
2019-05-23T09:59:12.960Z,37.56
2019-05-23T10:01:42.633Z,37.79
2019-05-23T10:04:12.431Z,37.20
2019-05-23T10:06:45.573Z,37.13
2019-05-23T10:09:13.394Z,37.05
2019-05-23T10:11:43.114Z,37.22
2019-05-23T10:14:14.953Z,37.75
2019-05-23T10:16:44.724Z,39.02
2019-05-23T10:19:14.616Z,39.89
2019-05-23T10:21:44.431Z,39.54
2019-05-23T10:24:14.320Z,40.26
2019-05-23T10:26:44.587Z,41.30
2019-05-23T10:29:14.295Z,41.84
2019-05-23T10:31:43.943Z,42.61
2019-05-23T10:34:13.594Z,42.62
2019-05-23T10:36:43.290Z,42.61
2019-05-23T10:39:15.250Z,42.59
2019-05-23T10:41:45.212Z,42.61
2019-05-23T10:44:15.063Z,43.12
2019-05-23T10:46:44.687Z,42.93
2019-05-23T10:49:14.345Z,43.40
2019-05-23T10:51:44.014Z,43.43
2019-05-23T10:54:14.260Z,43.78
2019-05-23T10:56:44.011Z,43.61
2019-05-23T10:59:13.855Z,44.41
2019-05-23T11:01:44.000Z,44.04
2019-05-23T11:04:13.711Z,42.43
2019-05-23T11:06:43.526Z,41.75
2019-05-23T11:09:13.482Z,41.09
2019-05-23T11:11:43.142Z,40.93
2019-05-23T11:14:13.132Z,40.75
2019-05-23T11:16:43.319Z,40.94
2019-05-23T11:19:13.471Z,40.74
2019-05-23T11:21:43.071Z,39.89
2019-05-23T11:24:13.123Z,39.25
2019-05-23T11:26:43.181Z,39.05
2019-05-23T11:29:12.826Z,39.03
2019-05-23T11:31:43.077Z,39.68
2019-05-23T11:34:12.966Z,40.16
2019-05-23T11:36:43.081Z,41.45
2019-05-23T11:39:13.342Z,42.60
2019-05-23T11:41:42.960Z,43.65
2019-05-23T11:44:12.588Z,44.48
2019-05-23T11:46:42.689Z,45.12
2019-05-23T11:49:12.659Z,45.87
2019-05-23T11:51:42.993Z,46.54
2019-05-23T11:54:12.761Z,47.43
2019-05-23T11:56:42.615Z,48.09
2019-05-23T11:59:12.405Z,48.60
2019-05-23T12:01:52.557Z,48.51
2019-05-23T12:04:22.832Z,49.39
2019-05-23T12:06:57.057Z,50.67
2019-05-23T12:09:27.788Z,51.06
2019-05-23T12:11:57.678Z,52.33
2019-05-23T12:14:27.279Z,51.69
2019-05-23T12:16:59.114Z,51.30
2019-05-23T12:19:28.873Z,50.43
2019-05-23T12:21:58.751Z,51.63
2019-05-23T12:24:35.073Z,52.39
2019-05-23T12:27:02.582Z,53.22
2019-05-23T12:29:32.172Z,53.69
2019-05-23T12:32:01.861Z,53.99
2019-05-23T12:34:31.654Z,53.91
2019-05-23T12:37:18.117Z,53.77
2019-05-23T12:39:33.269Z,53.63
2019-05-23T12:42:02.980Z,53.54
2019-05-23T12:44:32.735Z,54.02
2019-05-23T12:47:04.098Z,54.33
2019-05-23T12:49:38.524Z,54.01
2019-05-23T12:52:08.686Z,54.47
2019-05-23T12:54:38.480Z,55.05
2019-05-23T12:57:08.430Z,55.31
2019-05-23T12:59:38.140Z,55.13
2019-05-23T13:02:09.518Z,54.92
2019-05-23T13:04:39.467Z,54.67
2019-05-23T13:07:10.258Z,54.51
2019-05-23T13:09:42.111Z,54.45
2019-05-23T13:12:11.709Z,54.59
2019-05-23T13:14:41.400Z,55.15
2019-05-23T13:17:11.010Z,55.64
2019-05-23T13:19:40.785Z,55.87
2019-05-23T13:22:10.882Z,55.86
2019-05-23T13:24:51.864Z,55.06
2019-05-23T13:27:12.112Z,55.46
2019-05-23T13:29:41.875Z,55.26
2019-05-23T13:32:11.790Z,54.91
2019-05-23T13:34:41.712Z,54.95
2019-05-23T13:37:16.861Z,55.32
2019-05-23T13:39:44.992Z,56.19
2019-05-23T13:42:14.760Z,55.79
2019-05-23T13:44:48.026Z,56.04
2019-05-23T13:47:17.738Z,56.09
2019-05-23T13:49:47.877Z,55.97
2019-05-23T13:52:22.131Z,55.97
2019-05-23T13:54:49.434Z,56.30
2019-05-23T13:57:19.818Z,55.51
2019-05-23T13:59:49.493Z,54.43
2019-05-23T14:02:19.382Z,54.47
2019-05-23T14:04:49.467Z,53.43
2019-05-23T14:13:28.012Z,51.31
2019-05-23T14:15:57.683Z,52.24
2019-05-23T14:18:28.927Z,53.17
2019-05-23T14:20:58.739Z,52.91
2019-05-23T14:23:32.984Z,52.70
2019-05-23T14:26:03.741Z,52.37
2019-05-23T14:28:33.669Z,52.44
2019-05-23T14:31:05.142Z,52.77
2019-05-23T14:33:51.564Z,52.92
2019-05-23T14:36:37.951Z,52.90
2019-05-23T14:39:12.309Z,53.03
2019-05-23T14:41:45.617Z,51.72
2019-05-23T14:44:15.649Z,51.89
2019-05-23T14:47:03.201Z,51.41
2019-05-23T14:49:34.826Z,51.24
2019-05-23T14:52:15.637Z,51.00
2019-05-23T14:54:47.574Z,50.46
2019-05-23T14:57:17.643Z,50.43
2019-05-23T14:59:47.328Z,50.66
2019-05-23T15:02:18.191Z,50.10
2019-05-23T15:04:47.874Z,49.66
2019-05-23T15:07:17.580Z,49.13
2019-05-23T15:09:47.429Z,48.76
2019-05-23T15:12:18.697Z,48.47
2019-05-23T15:14:48.562Z,48.56
2019-05-23T15:17:18.554Z,48.44
2019-05-23T15:19:48.215Z,48.24
2019-05-23T15:22:17.980Z,48.45
2019-05-23T15:24:49.717Z,47.95
2019-05-23T15:27:19.764Z,47.30
2019-05-23T15:29:49.951Z,46.89
2019-05-23T15:32:19.880Z,46.31
2019-05-23T15:34:49.548Z,45.90
2019-05-23T15:37:19.600Z,45.81
2019-05-23T15:39:49.218Z,45.76
2019-05-23T15:42:18.822Z,45.48
2019-05-23T15:44:48.436Z,45.24
2019-05-23T15:47:19.688Z,43.70
2019-05-23T15:49:50.966Z,41.05
2019-05-23T15:52:38.659Z,37.79
2019-05-23T15:55:16.665Z,35.09
2019-05-23T15:57:57.676Z,33.02
2019-05-23T16:00:45.258Z,31.66
2019-05-23T16:03:26.089Z,30.62
2019-05-23T16:05:55.970Z,29.71
2019-05-23T16:08:26.581Z,29.11
2019-05-23T16:10:56.745Z,28.64
2019-05-23T16:13:26.585Z,28.25
2019-05-23T16:15:56.207Z,27.90
2019-05-23T16:18:26.396Z,27.60
2019-05-23T16:20:56.071Z,27.40
2019-05-23T16:23:28.492Z,27.09
2019-05-23T16:25:58.119Z,26.91
2019-05-23T16:28:28.381Z,26.73
2019-05-23T16:30:58.171Z,26.62
2019-05-23T16:33:27.765Z,26.48
2019-05-23T16:35:57.433Z,26.31
2019-05-23T16:38:27.153Z,26.20
2019-05-23T16:40:56.850Z,26.12
2019-05-23T16:43:33.282Z,26.03
2019-05-23T16:46:03.077Z,25.96
2019-05-23T16:48:33.485Z,25.89
2019-05-23T16:51:07.630Z,25.79
2019-05-23T16:53:38.788Z,25.63
2019-05-23T16:56:16.203Z,25.51
2019-05-23T16:58:48.880Z,25.50
2019-05-23T17:01:32.067Z,25.42
2019-05-23T17:04:11.886Z,25.33
2019-05-23T17:06:55.000Z,25.26
2019-05-23T17:09:42.637Z,25.29
2019-05-23T17:12:14.085Z,25.17
2019-05-23T17:15:00.725Z,25.09
2019-05-23T17:18:00.051Z,25.03
2019-05-23T17:20:19.734Z,24.78
2019-05-23T17:22:48.730Z,24.59
2019-05-23T17:25:36.411Z,24.49
2019-05-23T17:28:07.931Z,24.38
2019-05-23T17:30:49.506Z,24.26
2019-05-23T17:33:19.827Z,24.17
2019-05-23T17:35:49.541Z,24.07
2019-05-23T17:38:20.467Z,23.97
2019-05-23T17:40:50.316Z,23.89
2019-05-23T17:43:20.811Z,23.80
2019-05-23T17:45:51.200Z,23.68
2019-05-23T17:48:21.060Z,23.54
2019-05-23T17:50:52.319Z,23.44
2019-05-23T17:53:22.058Z,23.35
2019-05-23T17:55:52.379Z,23.26
2019-05-23T17:58:30.362Z,23.14
2019-05-23T18:01:00.944Z,23.04
2019-05-23T18:03:32.350Z,22.96
2019-05-23T18:06:03.979Z,22.90
2019-05-23T18:08:33.757Z,22.82
2019-05-23T18:11:03.513Z,22.72
2019-05-23T18:13:33.866Z,22.63
2019-05-23T18:16:03.953Z,22.51
2019-05-23T18:18:34.340Z,22.40
2019-05-23T18:21:05.950Z,22.29
2019-05-23T18:23:35.775Z,22.17
2019-05-23T18:26:06.959Z,22.06
2019-05-23T18:28:36.988Z,21.99
2019-05-23T18:31:14.766Z,21.91
2019-05-23T18:33:44.809Z,21.84
2019-05-23T18:36:15.563Z,21.77
2019-05-23T18:38:45.866Z,21.69
2019-05-23T18:41:15.501Z,21.62
2019-05-23T18:43:46.533Z,21.50
2019-05-23T18:46:21.126Z,21.46
2019-05-23T18:48:50.731Z,21.38
2019-05-23T18:51:20.338Z,21.30
2019-05-23T18:53:53.506Z,21.20
2019-05-23T18:56:23.433Z,21.13
2019-05-23T18:58:53.626Z,21.03
2019-05-23T19:01:25.935Z,20.95
2019-05-23T19:03:56.058Z,20.87
2019-05-23T19:06:27.768Z,20.76
2019-05-23T19:08:57.828Z,20.70
2019-05-23T19:11:29.112Z,20.62
2019-05-23T19:13:58.879Z,20.53
2019-05-23T19:16:29.272Z,20.47
2019-05-23T19:19:00.192Z,20.41
2019-05-23T19:21:36.341Z,20.35
2019-05-23T19:24:06.418Z,20.26
2019-05-23T19:26:36.507Z,20.21
2019-05-23T19:29:06.656Z,20.14
2019-05-23T19:31:39.656Z,20.08
2019-05-23T19:34:09.283Z,20.00
2019-05-23T19:36:39.823Z,19.94
2019-05-23T19:39:10.119Z,19.87
2019-05-23T19:41:40.284Z,19.80
2019-05-23T19:44:09.970Z,19.73
2019-05-23T19:46:41.721Z,19.68
2019-05-23T19:49:12.925Z,19.62
2019-05-23T19:51:43.001Z,19.59
2019-05-23T19:54:12.838Z,19.55
2019-05-23T19:56:42.690Z,19.52
2019-05-23T19:59:14.501Z,19.52
2019-05-23T20:02:03.770Z,19.45
2019-05-23T20:04:35.195Z,19.37
2019-05-23T20:07:05.628Z,19.31
2019-05-23T20:09:35.478Z,19.26
2019-05-23T20:12:05.342Z,19.20
2019-05-23T20:14:35.046Z,19.15
2019-05-23T20:17:04.635Z,19.10
2019-05-23T20:19:34.268Z,19.05
2019-05-23T20:22:03.974Z,19.03
2019-05-23T20:24:33.653Z,18.98
2019-05-23T20:27:03.617Z,18.95
2019-05-23T20:29:33.223Z,18.92
2019-05-23T20:32:05.528Z,18.90
2019-05-23T20:34:35.205Z,18.86
2019-05-23T20:37:05.238Z,18.83
2019-05-23T20:39:35.133Z,18.81
2019-05-23T20:42:11.591Z,18.76
2019-05-23T20:44:36.489Z,18.73
2019-05-23T20:47:06.943Z,18.69
2019-05-23T20:49:39.479Z,18.64
2019-05-23T20:52:09.336Z,18.59
2019-05-23T20:54:39.025Z,18.53
2019-05-23T20:57:08.831Z,18.49
2019-05-23T20:59:38.968Z,18.44
2019-05-23T21:02:08.986Z,18.41
2019-05-23T21:04:38.812Z,18.32
2019-05-23T21:07:08.417Z,18.29
2019-05-23T21:09:38.317Z,18.26
2019-05-23T21:12:08.825Z,18.21
2019-05-23T21:14:38.450Z,18.15
2019-05-23T21:17:08.180Z,18.12
2019-05-23T21:19:37.805Z,18.11
2019-05-23T21:22:07.409Z,18.08
2019-05-23T21:24:37.395Z,18.06
2019-05-23T21:27:07.012Z,18.03
2019-05-23T21:29:36.883Z,17.95
2019-05-23T21:32:07.166Z,17.89
2019-05-23T21:34:36.783Z,17.85
2019-05-23T21:37:06.400Z,17.80
2019-05-23T21:39:36.656Z,17.75
2019-05-23T21:42:06.346Z,17.72
2019-05-23T21:44:36.246Z,17.71
2019-05-23T21:47:05.867Z,17.72
2019-05-23T21:49:35.586Z,17.72
2019-05-23T21:52:06.572Z,17.70
2019-05-23T21:54:37.908Z,17.66
2019-05-23T21:57:07.839Z,17.65
2019-05-23T21:59:37.492Z,17.60
2019-05-23T22:02:15.392Z,17.59
2019-05-23T22:04:49.859Z,17.51
2019-05-23T22:07:19.465Z,17.50
2019-05-23T22:09:49.244Z,17.46
2019-05-23T22:12:19.247Z,17.45
2019-05-23T22:14:49.370Z,17.44
2019-05-23T22:17:20.617Z,17.41
2019-05-23T22:19:52.184Z,17.42
2019-05-23T22:22:30.436Z,17.41
2019-05-23T22:24:59.232Z,17.42
2019-05-23T22:27:28.945Z,17.41
2019-05-23T22:29:58.551Z,17.38
2019-05-23T22:32:29.809Z,17.35
2019-05-23T22:35:01.895Z,17.36
2019-05-23T22:37:31.724Z,17.35
2019-05-23T22:40:01.638Z,17.29
2019-05-23T22:42:31.534Z,17.22
2019-05-23T22:45:02.322Z,17.25
2019-05-23T22:47:31.920Z,17.32
2019-05-23T22:50:01.722Z,17.32
2019-05-23T22:52:31.327Z,17.28
2019-05-23T22:55:00.925Z,17.25
2019-05-23T22:57:30.544Z,17.21
2019-05-23T23:00:00.220Z,17.17
2019-05-23T23:02:32.741Z,17.16
2019-05-23T23:05:02.462Z,17.10
2019-05-23T23:07:32.089Z,17.10
2019-05-23T23:10:01.702Z,17.08
2019-05-23T23:12:31.488Z,17.07
2019-05-23T23:15:01.108Z,17.03
2019-05-23T23:17:32.440Z,16.98
2019-05-23T23:20:02.047Z,16.94
2019-05-23T23:22:31.675Z,16.83
2019-05-23T23:25:01.318Z,16.81
2019-05-23T23:27:30.980Z,16.79
2019-05-23T23:30:00.587Z,16.76
2019-05-23T23:32:30.207Z,16.75
2019-05-23T23:34:59.813Z,16.72
2019-05-23T23:37:29.494Z,16.72
2019-05-23T23:39:59.161Z,16.64
2019-05-23T23:42:28.795Z,16.58
2019-05-23T23:45:16.651Z,16.53
2019-05-23T23:48:04.065Z,16.48
2019-05-23T23:50:51.086Z,16.43
2019-05-23T23:53:41.824Z,16.35
2019-05-23T23:56:29.236Z,16.29
2019-05-23T23:58:58.026Z,16.19
